Time;durP1;ratioP1;P1;durP2;ratioP2;P2;SDS_P1;SDS_P2;PMS_P1;PMS_P2;Temp;Humidity;BMP_temperature;BMP_pressure;BME280_temperature;BME280_humidity;BME280_pressure;Samples;Min_cycle;Max_cycle;Signal;HPM_P1;HPM_P2
2022/09/17 00:02:58;;;;;;;2.70;0.63;;;;;;;11.15;68.43;98905.38;10546795;28;20482;-74
2022/09/17 00:08:00;;;;;;;3.67;1.00;;;;;;;11.07;68.66;98904.00;10547237;28;20040;-74
2022/09/17 00:13:01;;;;;;;4.60;1.08;;;;;;;11.12;68.81;98901.13;10547297;28;20044;-74
2022/09/17 00:18:03;;;;;;;3.58;0.70;;;;;;;11.04;68.90;98898.88;10546693;28;20046;-74
2022/09/17 00:23:05;;;;;;;4.38;0.85;;;;;;;11.07;68.99;98908.41;10546479;28;20048;-74
2022/09/17 00:28:08;;;;;;;3.33;0.85;;;;;;;11.16;68.63;98912.34;10544263;28;20064;-74
2022/09/17 00:33:14;;;;;;;3.30;0.80;;;;;;;11.18;68.97;98908.69;10545338;28;20443;-74
2022/09/17 00:38:16;;;;;;;2.42;0.75;;;;;;;11.25;68.49;98909.22;10544768;28;20540;-74
2022/09/17 00:43:48;;;;;;;4.47;0.80;;;;;;;11.18;68.71;98911.31;10544469;28;20066;-74
2022/09/17 00:48:52;;;;;;;3.53;0.95;;;;;;;11.28;68.79;98909.06;10525665;28;20076;-75
2022/09/17 00:53:55;;;;;;;6.63;0.98;;;;;;;11.20;69.46;98913.84;10543989;28;20043;-74
2022/09/17 00:58:57;;;;;;;1.90;0.50;;;;;;;11.20;69.57;98913.84;10543648;28;20074;-75
2022/09/17 01:03:59;;;;;;;5.90;0.93;;;;;;;11.16;69.56;98910.56;10525042;28;20428;-73
2022/09/17 01:09:05;;;;;;;4.00;0.70;;;;;;;11.16;69.42;98902.69;10542912;28;20105;-74
2022/09/17 01:14:13;;;;;;;5.22;0.88;;;;;;;11.11;69.99;98902.91;10544167;28;20097;-74
2022/09/17 01:19:36;;;;;;;4.22;0.90;;;;;;;11.19;69.40;98901.66;10536063;22;21230;-69
2022/09/17 01:24:48;;;;;;;2.38;0.70;;;;;;;11.18;69.57;98889.44;10583397;28;20047;-69
2022/09/17 01:30:11;;;;;;;2.33;0.68;;;;;;;11.23;69.66;98884.78;10583995;28;20149;-69
2022/09/17 01:35:37;;;;;;;2.80;0.70;;;;;;;11.21;69.75;98890.13;10565529;28;20090;-70
2022/09/17 01:40:52;;;;;;;4.30;1.02;;;;;;;11.13;70.78;98901.97;10563527;28;20044;-71
2022/09/17 01:46:19;;;;;;;3.58;0.75;;;;;;;11.18;70.38;98895.53;10582634;28;20435;-70
2022/09/17 01:51:24;;;;;;;3.88;0.80;;;;;;;11.22;69.92;98906.75;10583354;28;20047;-70
2022/09/17 01:56:32;;;;;;;2.38;0.60;;;;;;;11.20;70.32;98913.84;10582200;28;20044;-70
2022/09/17 02:01:37;;;;;;;3.72;0.77;;;;;;;11.28;70.17;98911.69;10583180;28;20046;-70
2022/09/17 02:06:45;;;;;;;3.72;0.70;;;;;;;11.18;70.70;98915.72;10581789;28;20043;-70
2022/09/17 02:11:54;;;;;;;3.25;0.80;;;;;;;11.24;70.08;98918.03;10582320;28;20075;-70
2022/09/17 02:17:09;;;;;;;2.38;0.68;;;;;;;11.29;70.27;98924.78;10582008;28;20040;-70
2022/09/17 02:22:26;;;;;;;3.33;0.80;;;;;;;11.29;70.18;98919.50;10581784;28;20497;-70
2022/09/17 02:27:36;;;;;;;;;;;;;;;11.18;71.27;98921.00;10563894;28;20044;-70
2022/09/17 02:32:38;;;;;;;2.58;0.68;;;;;;;11.20;70.88;98916.50;10581796;28;19919;-70
2022/09/17 02:37:41;;;;;;;2.55;0.55;;;;;;;11.11;72.08;98915.19;10563192;28;20077;-70
2022/09/17 02:43:02;;;;;;;3.90;0.70;;;;;;;11.15;71.83;98905.38;10547387;28;20044;-70
2022/09/17 02:48:11;;;;;;;4.22;0.70;;;;;;;11.21;71.51;98905.91;10562653;28;20075;-70
2022/09/17 02:53:37;;;;;;;2.83;0.57;;;;;;;11.20;71.99;98898.06;10585563;28;20404;-70
2022/09/17 02:59:10;;;;;;;3.28;0.80;;;;;;;11.19;72.24;98901.66;10589522;28;20451;-70
2022/09/17 03:04:16;;;;;;;3.40;0.65;;;;;;;11.08;73.19;98899.59;10588541;28;20055;-70
2022/09/17 03:09:17;;;;;;;1.65;0.40;;;;;;;11.05;74.01;98900.59;10589268;28;20173;-70
2022/09/17 03:14:19;;;;;;;2.72;0.65;;;;;;;11.09;73.83;98899.50;10588739;28;20044;-70
2022/09/17 03:19:21;;;;;;;5.25;0.88;;;;;;;11.06;73.89;98906.69;10570186;28;20050;-70
2022/09/17 03:24:22;;;;;;;4.68;1.05;;;;;;;11.13;74.18;98904.59;10588975;28;20049;-71
2022/09/17 03:29:24;;;;;;;3.20;1.15;;;;;;;11.23;73.60;98924.22;10588061;28;20063;-70
2022/09/17 03:34:26;;;;;;;6.13;0.90;;;;;;;11.28;73.81;98923.06;10588901;28;20496;-71
2022/09/17 03:39:28;;;;;;;2.53;0.65;;;;;;;11.22;74.49;98928.66;10569590;28;20047;-70
2022/09/17 03:44:30;;;;;;;7.50;0.70;;;;;;;11.18;74.96;98927.09;10587111;28;20101;-70
2022/09/17 03:49:31;;;;;;;3.67;0.88;;;;;;;11.17;75.27;98925.41;10587049;28;20039;-70
2022/09/17 03:54:33;;;;;;;2.45;0.70;;;;;;;11.20;75.34;98927.00;10587388;28;20044;-70
2022/09/17 03:59:35;;;;;;;3.35;1.20;;;;;;;11.16;75.71;98928.97;10586933;28;20046;-69
2022/09/17 04:04:36;;;;;;;3.65;1.30;;;;;;;11.16;76.03;98936.03;10550325;28;20094;-69
2022/09/17 04:09:38;;;;;;;1.88;0.80;;;;;;;11.14;77.02;98932.59;10568358;28;20039;-69
2022/09/17 04:14:39;;;;;;;6.65;0.82;;;;;;;11.09;77.84;98933.69;10567867;28;20180;-70
2022/09/17 04:19:41;;;;;;;3.08;0.82;;;;;;;10.98;78.78;98943.03;10567520;28;20443;-70
2022/09/17 04:24:42;;;;;;;3.92;0.75;;;;;;;10.98;79.98;98940.41;10586845;28;20048;-69
2022/09/17 04:29:44;;;;;;;2.22;0.70;;;;;;;10.94;80.88;98926.59;10585968;28;20096;-70
2022/09/17 04:34:46;;;;;;;3.45;0.93;;;;;;;10.89;81.75;98936.50;10585967;28;20047;-70
2022/09/17 04:39:47;;;;;;;3.22;1.00;;;;;;;10.76;83.53;98931.00;10567088;28;20443;-70
2022/09/17 04:44:49;;;;;;;4.78;1.27;;;;;;;10.77;84.61;98937.09;10585053;28;20047;-69
2022/09/17 04:49:51;;;;;;;2.67;0.80;;;;;;;10.69;85.96;98936.63;10567320;28;20036;-69
2022/09/17 04:54:52;;;;;;;2.97;1.00;;;;;;;10.57;87.02;98925.78;10584985;28;20055;-70
2022/09/17 04:59:54;;;;;;;3.67;0.90;;;;;;;10.64;87.57;98934.22;10549507;28;20089;-70
2022/09/17 05:04:55;;;;;;;2.60;0.88;;;;;;;10.70;87.97;98935.69;10584240;28;20117;-70
2022/09/17 05:09:57;;;;;;;3.45;0.98;;;;;;;10.67;88.19;98939.34;10583831;28;20047;-70
2022/09/17 05:14:58;;;;;;;3.80;1.10;;;;;;;10.61;90.10;98942.25;10565418;28;20086;-70
2022/09/17 05:20:00;;;;;;;2.80;1.40;;;;;;;10.60;90.80;98946.66;10583575;28;20531;-70
2022/09/17 05:25:02;;;;;;;2.55;1.17;;;;;;;10.58;92.73;98961.69;10565403;28;20043;-70
2022/09/17 05:30:05;;;;;;;2.50;1.13;;;;;;;10.64;92.44;98954.41;10583250;28;19965;-71
2022/09/17 05:35:08;;;;;;;3.45;1.00;;;;;;;10.64;93.29;98965.78;10583450;28;20077;-70
2022/09/17 05:40:09;;;;;;;0.93;0.73;;;;;;;10.77;91.79;98968.66;10583143;28;20454;-70
2022/09/17 05:45:11;;;;;;;2.35;0.82;;;;;;;10.82;91.33;98964.00;10583158;28;20039;-70
2022/09/17 05:50:13;;;;;;;1.85;1.02;;;;;;;10.89;91.11;98959.28;10582975;28;20090;-71
2022/09/17 05:55:15;;;;;;;3.83;1.20;;;;;;;10.94;92.06;98971.28;10564814;28;20055;-70
2022/09/17 06:00:17;;;;;;;1.52;1.00;;;;;;;10.89;93.91;98962.78;10564887;28;20077;-71
2022/09/17 06:05:19;;;;;;;5.53;4.18;;;;;;;10.92;94.06;98959.97;10582887;28;20084;-71
2022/09/17 06:10:21;;;;;;;1.83;1.00;;;;;;;11.06;93.78;98960.13;10583205;28;20439;-71
2022/09/17 06:15:23;;;;;;;1.35;0.90;;;;;;;11.02;94.19;98963.88;10582292;28;20051;-71
2022/09/17 06:20:24;;;;;;;1.70;0.80;;;;;;;11.19;93.70;98976.13;10582318;28;20048;-71
2022/09/17 06:25:26;;;;;;;1.40;1.30;;;;;;;11.06;94.92;98970.66;10581900;28;20455;-72
2022/09/17 06:30:28;;;;;;;1.75;0.60;;;;;;;11.02;95.59;98976.13;10563995;28;20044;-71
2022/09/17 06:35:30;;;;;;;0.93;0.45;;;;;;;11.06;94.65;98977.69;10564056;28;20054;-71
2022/09/17 06:40:31;;;;;;;2.05;1.00;;;;;;;11.09;96.59;98970.50;10581693;28;20047;-72
2022/09/17 06:45:33;;;;;;;0.85;0.85;;;;;;;11.25;96.90;98970.59;10581505;28;20509;-71
2022/09/17 06:50:35;;;;;;;1.38;1.13;;;;;;;11.22;97.35;98976.00;10562986;28;20505;-71
2022/09/17 06:55:42;;;;;;;0.40;0.32;;;;;;;11.19;98.28;98968.25;10547214;28;20460;-71
2022/09/17 07:00:44;;;;;;;0.40;0.40;;;;;;;11.15;99.14;98968.47;10581851;28;20476;-71
2022/09/17 07:05:46;;;;;;;0.35;0.35;;;;;;;11.17;100.00;98970.13;10563845;28;20073;-71
2022/09/17 07:10:48;;;;;;;1.50;1.02;;;;;;;11.09;100.00;98964.41;10582860;28;20051;-72
2022/09/17 07:15:58;;;;;;;0.32;0.32;;;;;;;11.20;100.00;98975.22;10546864;28;20118;-71
2022/09/17 07:21:04;;;;;;;2.55;1.10;;;;;;;11.06;100.00;98975.91;10581057;22;20484;-74
2022/09/17 07:26:11;;;;;;;5.38;4.10;;;;;;;11.07;100.00;98980.25;10538289;28;20032;-74
2022/09/17 07:31:13;;;;;;;4.00;2.15;;;;;;;10.92;100.00;98986.28;10520720;28;20113;-73
2022/09/17 07:36:17;;;;;;;7.72;3.03;;;;;;;11.13;100.00;98994.03;10538376;28;20055;-74
2022/09/17 07:41:19;;;;;;;5.10;3.53;;;;;;;11.05;100.00;98997.88;10543587;28;20052;-74
2022/09/17 07:46:20;;;;;;;9.65;4.50;;;;;;;11.35;100.00;99002.53;10544914;28;20489;-74
2022/09/17 07:51:24;;;;;;;5.90;3.67;;;;;;;11.48;100.00;99013.28;10545366;28;20439;-74
2022/09/17 07:56:26;;;;;;;8.07;3.85;;;;;;;11.59;100.00;99014.41;10544713;28;20036;-74
2022/09/17 08:01:28;;;;;;;7.38;2.92;;;;;;;11.73;98.48;99031.25;10510246;28;20062;-74
2022/09/17 08:06:30;;;;;;;11.00;3.47;;;;;;;11.83;97.32;99037.78;10544485;28;20396;-73
2022/09/17 08:11:32;;;;;;;11.02;3.08;;;;;;;11.80;95.66;99049.28;10545490;28;20063;-73
2022/09/17 08:16:53;;;;;;;7.32;2.88;;;;;;;11.98;94.58;99062.44;10544295;28;20078;-73
2022/09/17 08:21:55;;;;;;;9.70;3.10;;;;;;;12.18;94.46;99050.88;10520901;28;20048;-72
2022/09/17 08:26:57;;;;;;;8.98;2.60;;;;;;;12.25;94.44;99053.06;10543662;28;20044;-72
2022/09/17 08:31:58;;;;;;;5.57;2.20;;;;;;;12.32;91.72;99050.97;10542816;28;20046;-74
2022/09/17 08:37:00;;;;;;;8.65;2.78;;;;;;;12.38;88.95;99069.06;10508919;28;20121;-73
2022/09/17 08:42:30;;;;;;;8.90;3.47;;;;;;;12.28;85.37;99083.69;10522942;28;20582;-71
2022/09/17 08:47:40;;;;;;;10.10;2.95;;;;;;;12.54;84.41;99091.03;10495617;28;20040;-74
2022/09/17 08:52:58;;;;;;;7.72;3.58;;;;;;;12.65;85.44;99087.78;10533726;28;20477;-73
2022/09/17 08:58:21;;;;;;;11.18;3.58;;;;;;;12.76;81.81;99081.94;10500425;28;20044;-72
2022/09/17 09:03:48;;;;;;;6.03;3.78;;;;;;;12.99;78.70;99080.63;10527001;28;20040;-73
2022/09/17 09:08:57;;;;;;;9.57;2.90;;;;;;;12.99;79.04;99085.91;10541186;28;20051;-71
2022/09/17 09:14:08;;;;;;;8.93;2.65;;;;;;;13.08;78.39;99075.69;10512423;28;20470;-71
2022/09/17 09:19:25;;;;;;;5.18;1.98;;;;;;;12.96;74.83;99072.88;10515129;28;20072;-73
2022/09/17 09:24:41;;;;;;;6.82;2.25;;;;;;;13.11;76.47;99078.16;10536736;28;20055;-73
2022/09/17 09:30:03;;;;;;;5.88;1.67;;;;;;;13.55;73.36;99079.19;10507074;28;20047;-74
2022/09/17 09:35:17;;;;;;;5.18;1.42;;;;;;;13.59;71.63;99081.53;10482224;28;20051;-73
2022/09/17 09:40:47;;;;;;;4.80;2.03;;;;;;;13.65;71.09;99093.53;10522927;28;20105;-74
2022/09/17 09:46:10;;;;;;;5.57;1.30;;;;;;;13.53;71.69;99091.59;10514251;28;20086;-74
2022/09/17 09:51:19;;;;;;;5.80;2.75;;;;;;;13.69;70.94;99087.13;10498381;28;20127;-73
2022/09/17 09:56:51;;;;;;;4.43;1.05;;;;;;;13.44;73.81;99084.22;10535055;28;20043;-73
2022/09/17 10:01:53;;;;;;;4.35;1.02;;;;;;;13.44;72.23;99089.50;10539103;28;20531;-74
2022/09/17 10:07:07;;;;;;;3.63;1.10;;;;;;;13.48;70.07;99083.94;10540031;28;20071;-74
2022/09/17 10:12:09;;;;;;;3.58;0.93;;;;;;;13.04;70.92;99091.78;10521712;28;20040;-75
2022/09/17 10:17:25;;;;;;;4.47;0.80;;;;;;;12.57;76.77;99113.72;10539509;28;20094;-73
2022/09/17 10:22:31;;;;;;;3.50;0.85;;;;;;;12.11;81.42;99109.13;10539602;28;20044;-73
2022/09/17 10:27:35;;;;;;;2.17;1.00;;;;;;;12.18;85.07;99109.69;10540630;28;20071;-73
2022/09/17 10:32:37;;;;;;;4.25;0.80;;;;;;;12.50;80.43;99110.56;10521618;28;20090;-73
2022/09/17 10:37:47;;;;;;;7.10;1.02;;;;;;;13.37;81.56;99102.22;10539485;28;20106;-73
2022/09/17 10:43:10;;;;;;;2.35;0.93;;;;;;;13.38;77.37;99099.50;10538743;28;20066;-73
2022/09/17 10:48:16;;;;;;;9.32;1.00;;;;;;;13.21;80.63;99094.31;10496876;28;20044;-73
2022/09/17 10:53:22;;;;;;;3.90;1.35;;;;;;;13.57;80.80;99103.69;10479690;28;20044;-72
2022/09/17 10:58:34;;;;;;;5.78;1.20;;;;;;;14.21;73.63;99102.47;10519586;28;20397;-72
2022/09/17 11:04:19;;;;;;;4.65;1.20;;;;;;;14.48;73.39;99109.63;10538622;28;20130;-73
2022/09/17 11:09:29;;;;;;;2.50;0.90;;;;;;;14.18;69.40;99093.88;10520526;28;20071;-72
2022/09/17 11:14:59;;;;;;;5.55;1.20;;;;;;;13.46;73.38;99090.25;10542880;28;20068;-74
2022/09/17 11:20:26;;;;;;;3.20;0.98;;;;;;;13.68;75.82;99085.44;10528755;28;20044;-73
2022/09/17 11:25:38;;;;;;;4.47;1.27;;;;;;;13.80;74.21;99078.53;10546582;28;20072;-74
2022/09/17 11:30:54;;;;;;;4.45;1.58;;;;;;;14.69;70.52;99065.13;10545849;28;20083;-74
2022/09/17 11:36:03;;;;;;;5.37;1.40;;;;;;;14.92;67.84;99064.50;10545867;28;20175;-74
2022/09/17 11:41:29;;;;;;;4.22;1.23;;;;;;;14.31;61.75;99095.66;10545982;28;20378;-75
2022/09/17 11:46:39;;;;;;;7.93;1.38;;;;;;;13.21;67.49;99112.78;10545482;28;20127;-74
2022/09/17 11:51:57;;;;;;;3.13;1.02;;;;;;;13.02;70.06;99118.25;10544789;28;20044;-74
2022/09/17 11:57:15;;;;;;;5.05;0.82;;;;;;;12.92;72.29;99116.19;10526598;28;20143;-76
2022/09/17 12:02:26;;;;;;;3.88;1.00;;;;;;;12.97;75.44;99106.22;10545058;28;20044;-74
2022/09/17 12:07:32;;;;;;;5.90;1.45;;;;;;;13.50;71.63;99115.53;10525770;28;20040;-74
2022/09/17 12:12:42;;;;;;;4.15;1.98;;;;;;;13.50;70.97;99115.53;10526321;28;20067;-74
2022/09/17 12:18:10;;;;;;;5.22;1.83;;;;;;;13.40;71.71;99098.53;10527448;28;20040;-74
2022/09/17 12:23:39;;;;;;;4.57;1.23;;;;;;;13.56;74.52;99099.34;10543717;28;20123;-74
2022/09/17 12:28:45;;;;;;;4.82;1.30;;;;;;;13.56;73.96;99086.16;10525636;28;20090;-74
2022/09/17 12:33:51;;;;;;;;;;;;;;;13.58;75.19;99085.09;10543851;28;20040;-74
2022/09/17 12:39:11;;;;;;;5.30;1.73;;;;;;;14.18;71.65;99070.94;10543155;28;19920;-73
2022/09/17 12:44:24;;;;;;;6.18;1.40;;;;;;;14.40;69.08;99070.44;10544252;28;20493;-74
2022/09/17 12:49:42;;;;;;;4.20;1.40;;;;;;;14.53;69.18;99055.53;10544688;28;20085;-74
2022/09/17 12:54:53;;;;;;;5.57;1.20;;;;;;;14.61;66.32;99050.63;10524397;28;20468;-74
2022/09/17 13:00:10;;;;;;;3.13;1.05;;;;;;;14.53;66.49;99037.03;10525127;28;20048;-74
2022/09/17 13:05:40;;;;;;;5.18;1.55;;;;;;;14.81;64.98;99036.09;10524724;28;20090;-73
2022/09/17 13:11:18;;;;;;;4.55;1.25;;;;;;;14.88;64.55;99036.56;10523849;28;20040;-74
2022/09/17 13:16:39;;;;;;;7.00;1.45;;;;;;;14.27;66.39;99054.50;10541732;28;20459;-74
2022/09/17 13:21:59;;;;;;;4.50;1.15;;;;;;;13.48;71.59;99078.66;10541917;28;20464;-73
2022/09/17 13:27:02;;;;;;;2.40;0.70;;;;;;;12.74;72.08;99075.88;10541403;28;20493;-72
2022/09/17 13:32:04;;;;;;;2.65;0.70;;;;;;;12.82;73.13;99073.66;10523021;28;20075;-72
2022/09/17 13:37:19;;;;;;;3.00;0.90;;;;;;;12.89;75.07;99053.94;10530107;28;20066;-72
2022/09/17 13:42:28;;;;;;;3.33;0.60;;;;;;;13.36;71.93;99045.06;10508612;28;20099;-73
2022/09/17 13:47:55;;;;;;;2.80;0.60;;;;;;;13.90;67.78;99045.38;10527155;28;20049;-73
2022/09/17 13:53:05;;;;;;;3.38;0.90;;;;;;;14.11;64.48;99037.88;10511920;28;20036;-73
2022/09/17 13:58:35;;;;;;;4.72;0.90;;;;;;;14.13;58.59;99039.50;10537347;28;20119;-73
2022/09/17 14:03:40;;;;;;;5.30;1.10;;;;;;;13.97;58.89;99030.81;10515651;28;20114;-73
2022/09/17 14:08:42;;;;;;;7.63;1.25;;;;;;;14.03;59.63;99029.59;10492420;28;20091;-74
2022/09/17 14:13:44;;;;;;;2.67;0.80;;;;;;;14.15;59.81;99026.19;10518975;28;20036;-74
2022/09/17 14:18:57;;;;;;;3.97;0.88;;;;;;;14.13;59.88;99015.72;10530286;28;20371;-74
2022/09/17 14:24:02;;;;;;;6.28;1.08;;;;;;;14.26;58.65;99007.88;10523307;28;20044;-75
2022/09/17 14:29:42;;;;;;;3.75;1.30;;;;;;;14.13;59.82;99007.78;10518004;28;20056;-75
2022/09/17 14:34:44;;;;;;;4.13;1.02;;;;;;;14.16;58.80;99003.25;10528061;28;20075;-74
2022/09/17 14:39:47;;;;;;;5.47;1.33;;;;;;;14.20;56.74;99013.53;10510517;28;20032;-74
2022/09/17 14:45:01;;;;;;;8.32;1.45;;;;;;;14.01;57.79;99018.28;10506661;28;20048;-73
2022/09/17 14:50:25;;;;;;;5.75;1.30;;;;;;;14.02;58.43;99019.97;10547741;28;20036;-73
2022/09/17 14:55:30;;;;;;;4.82;1.30;;;;;;;13.94;55.91;99014.31;10533758;28;20110;-73
2022/09/17 15:00:36;;;;;;;5.57;1.33;;;;;;;13.73;57.77;99004.13;10552073;28;20036;-73
2022/09/17 15:05:39;;;;;;;4.23;1.47;;;;;;;13.55;57.96;98999.97;10551461;28;20072;-73
2022/09/17 15:11:01;;;;;;;6.95;1.20;;;;;;;13.79;58.04;98993.19;10552573;28;20062;-72
2022/09/17 15:16:11;;;;;;;6.63;1.35;;;;;;;14.01;57.07;98990.06;10534266;28;20040;-73
2022/09/17 15:21:42;;;;;;;4.25;1.20;;;;;;;14.40;55.82;98980.56;10552126;28;20051;-73
2022/09/17 15:26:50;;;;;;;3.25;0.80;;;;;;;14.54;55.32;98982.34;10550908;28;20040;-72
2022/09/17 15:31:52;;;;;;;4.07;1.20;;;;;;;14.53;53.22;98978.84;10549594;28;20044;-72
2022/09/17 15:37:23;;;;;;;5.97;0.98;;;;;;;14.41;51.18;98982.25;10531735;28;20076;-73
2022/09/17 15:42:28;;;;;;;5.50;1.35;;;;;;;14.33;51.28;98998.59;10548751;28;20051;-72
2022/09/17 15:47:47;;;;;;;5.20;1.48;;;;;;;14.14;52.65;99006.00;10530765;28;20054;-73
2022/09/17 15:52:50;;;;;;;5.40;1.52;;;;;;;14.16;54.43;99005.88;10514249;28;20048;-73
2022/09/17 15:57:52;;;;;;;5.72;1.40;;;;;;;14.18;51.92;98999.56;10530168;28;20077;-73
2022/09/17 16:02:54;;;;;;;4.30;1.27;;;;;;;13.76;53.57;99008.34;10529408;28;20040;-72
2022/09/17 16:08:17;;;;;;;4.50;1.00;;;;;;;13.75;53.41;99004.88;10548033;28;20481;-73
2022/09/17 16:13:18;;;;;;;4.05;1.23;;;;;;;13.85;51.08;99005.16;10530373;28;20050;-73
2022/09/17 16:18:20;;;;;;;4.75;1.33;;;;;;;13.56;52.73;99002.50;10530088;28;20052;-72
2022/09/17 16:23:21;;;;;;;4.75;1.02;;;;;;;13.49;53.14;98998.53;10544020;28;20118;-73
2022/09/17 16:28:23;;;;;;;2.85;1.00;;;;;;;13.30;53.44;98996.16;10529266;28;20044;-73
2022/09/17 16:33:27;;;;;;;3.25;1.00;;;;;;;13.19;54.68;99002.94;10546300;28;20505;-72
2022/09/17 16:38:28;;;;;;;3.35;1.13;;;;;;;13.28;54.34;99007.72;10489825;28;20098;-72
2022/09/17 16:43:32;;;;;;;3.45;1.10;;;;;;;13.35;54.58;99003.78;10547903;28;20043;-72
2022/09/17 16:48:34;;;;;;;3.60;1.33;;;;;;;13.16;56.07;99019.00;10546587;28;20493;-72
2022/09/17 16:53:36;;;;;;;3.63;1.58;;;;;;;13.03;59.00;99024.97;10527640;28;20143;-73
2022/09/17 16:58:39;;;;;;;5.15;1.58;;;;;;;12.90;59.75;99042.44;10528070;28;20071;-72
2022/09/17 17:03:41;;;;;;;6.68;1.77;;;;;;;12.85;59.77;99037.44;10544956;28;20139;-72
2022/09/17 17:08:42;;;;;;;4.63;1.80;;;;;;;12.66;58.43;99046.44;10527414;28;20139;-72
2022/09/17 17:13:44;;;;;;;5.38;1.40;;;;;;;12.31;59.02;99036.94;10545354;28;20105;-72
2022/09/17 17:18:46;;;;;;;3.08;1.30;;;;;;;12.26;59.32;99038.97;10547807;28;20040;-72
2022/09/17 17:23:47;;;;;;;3.53;1.30;;;;;;;12.34;58.24;99036.75;10508893;28;20058;-72
2022/09/17 17:28:49;;;;;;;6.60;1.20;;;;;;;12.53;56.08;99041.88;10510118;28;20032;-72
2022/09/17 17:33:51;;;;;;;7.30;1.80;;;;;;;12.30;57.45;99051.03;10545618;28;20131;-72
2022/09/17 17:38:59;;;;;;;5.63;1.10;;;;;;;12.22;58.02;99062.91;10516588;28;20056;-72
2022/09/17 17:44:01;;;;;;;4.68;1.15;;;;;;;12.11;58.11;99066.97;10503387;28;20150;-73
2022/09/17 17:49:03;;;;;;;2.83;0.80;;;;;;;12.00;58.93;99069.34;10484308;28;20131;-72
2022/09/17 17:54:05;;;;;;;4.28;0.75;;;;;;;11.92;59.14;99074.16;10502703;28;20044;-72
2022/09/17 17:59:07;;;;;;;5.50;1.52;;;;;;;11.85;60.05;99080.69;10502409;28;20422;-72
2022/09/17 18:04:08;;;;;;;1.85;0.70;;;;;;;11.78;60.63;99084.53;10467823;28;20045;-73
2022/09/17 18:09:10;;;;;;;3.00;0.60;;;;;;;11.69;59.92;99083.25;10502219;28;20047;-72
2022/09/17 18:14:12;;;;;;;1.42;0.40;;;;;;;11.51;60.71;99087.66;10484448;28;20139;-73
2022/09/17 18:19:14;;;;;;;3.45;0.60;;;;;;;11.43;60.75;99089.81;10502526;28;20056;-72
2022/09/17 18:24:16;;;;;;;2.58;0.60;;;;;;;11.34;61.59;99092.91;10483708;28;20516;-72
2022/09/17 18:29:17;;;;;;;1.65;0.60;;;;;;;11.29;62.01;99092.31;10503581;28;20449;-72
2022/09/17 18:34:19;;;;;;;2.78;0.60;;;;;;;11.26;62.31;99088.03;10502648;28;20154;-72
2022/09/17 18:39:21;;;;;;;3.70;0.52;;;;;;;11.02;63.62;99095.34;10502078;28;20040;-72
2022/09/17 18:44:42;;;;;;;2.80;0.80;;;;;;;11.03;63.70;99096.22;10502475;28;20040;-72
2022/09/17 18:49:44;;;;;;;4.07;0.95;;;;;;;10.85;64.35;99098.78;10502474;28;20048;-73
2022/09/17 18:54:46;;;;;;;2.45;0.60;;;;;;;10.79;64.61;99106.09;10483773;28;20405;-72
2022/09/17 18:59:47;;;;;;;1.35;0.60;;;;;;;10.76;65.71;99107.13;10503389;28;20109;-72
2022/09/17 19:04:49;;;;;;;1.42;0.50;;;;;;;10.78;65.69;99113.13;10500453;28;20051;-73
2022/09/17 19:09:50;;;;;;;1.77;0.50;;;;;;;10.79;65.73;99117.47;10534145;28;20047;-73
2022/09/17 19:14:53;;;;;;;4.07;0.80;;;;;;;10.72;67.13;99107.34;10543215;28;20044;-73
2022/09/17 19:19:54;;;;;;;1.48;0.52;;;;;;;10.75;67.02;99112.44;10543496;28;20032;-73
2022/09/17 19:24:56;;;;;;;3.30;0.80;;;;;;;10.81;68.73;99106.91;10490070;23;20048;-70
2022/09/17 19:29:59;;;;;;;2.83;0.47;;;;;;;10.79;68.28;99101.69;10521920;28;20093;-70
2022/09/17 19:35:01;;;;;;;3.25;0.68;;;;;;;10.76;68.76;99103.63;10543247;28;20079;-70
2022/09/17 19:40:04;;;;;;;1.25;0.47;;;;;;;10.77;68.21;99105.34;10547341;28;20093;-69
2022/09/17 19:45:06;;;;;;;2.45;0.93;;;;;;;10.86;68.50;99112.78;10529969;28;20386;-70
2022/09/17 19:50:08;;;;;;;3.13;0.90;;;;;;;10.88;69.73;99103.03;10546846;28;20036;-70
2022/09/17 19:55:11;;;;;;;1.85;0.60;;;;;;;10.75;71.72;99096.66;10548089;28;20119;-69
2022/09/17 20:00:14;;;;;;;1.48;0.50;;;;;;;10.63;73.93;99094.63;10547231;28;20051;-69
2022/09/17 20:05:16;;;;;;;1.90;0.60;;;;;;;10.54;75.82;99098.53;10546915;28;20040;-69
2022/09/17 20:10:18;;;;;;;2.10;1.05;;;;;;;10.37;78.57;99107.19;10528389;28;20374;-70
2022/09/17 20:15:19;;;;;;;3.85;0.70;;;;;;;10.36;79.37;99113.38;10527349;28;20126;-70
2022/09/17 20:20:27;;;;;;;2.85;0.80;;;;;;;10.17;79.97;99115.06;10528570;28;20048;-71
2022/09/17 20:25:28;;;;;;;4.32;0.70;;;;;;;10.10;81.76;99110.09;10527750;28;20039;-70
2022/09/17 20:30:30;;;;;;;4.85;0.60;;;;;;;9.98;82.89;99108.00;10545041;28;20086;-71
2022/09/17 20:35:34;;;;;;;2.33;0.43;;;;;;;9.84;82.86;99102.53;10527359;28;20052;-69
2022/09/17 20:40:36;;;;;;;2.60;0.50;;;;;;;9.80;83.13;99101.78;10527370;28;20044;-70
2022/09/17 20:45:37;;;;;;;1.48;0.55;;;;;;;9.74;85.25;99094.19;10544770;28;20047;-70
2022/09/17 20:50:39;;;;;;;2.53;0.60;;;;;;;9.60;88.77;99091.28;10545804;28;20032;-69
2022/09/17 20:55:41;;;;;;;0.63;0.30;;;;;;;9.57;88.56;99073.94;10544542;28;20052;-69
2022/09/17 21:00:42;;;;;;;3.10;0.60;;;;;;;9.43;92.69;99070.16;10543848;28;20044;-69
2022/09/17 21:05:44;;;;;;;1.25;0.40;;;;;;;9.49;90.15;99072.56;10544058;28;20044;-69
2022/09/17 21:10:46;;;;;;;1.58;0.57;;;;;;;9.44;90.44;99067.50;10543473;28;20043;-69
2022/09/17 21:15:58;;;;;;;2.75;0.60;;;;;;;9.39;91.08;99074.72;10544068;28;20044;-69
2022/09/17 21:21:06;;;;;;;1.30;0.40;;;;;;;9.51;88.53;99068.09;10526069;28;20546;-69
2022/09/17 21:26:13;;;;;;;0.75;0.30;;;;;;;9.60;89.70;99070.31;10542630;28;20078;-71
2022/09/17 21:31:24;;;;;;;;;;;;;;;9.55;89.40;99078.38;10543513;28;20039;-69
2022/09/17 21:36:35;;;;;;;0.70;0.30;;;;;;;9.51;88.91;99073.31;10544471;28;19973;-69
2022/09/17 21:41:36;;;;;;;0.93;0.32;;;;;;;9.51;88.52;99062.84;10542180;28;20048;-69
2022/09/17 21:46:43;;;;;;;3.17;0.47;;;;;;;9.63;85.52;99067.56;10542583;28;20580;-69
2022/09/17 21:51:45;;;;;;;1.33;0.38;;;;;;;9.64;85.01;99073.66;10542308;28;20047;-69
2022/09/17 21:56:46;;;;;;;1.10;0.25;;;;;;;9.57;87.24;99068.69;10523887;28;20066;-69
2022/09/17 22:01:49;;;;;;;2.70;0.45;;;;;;;9.59;88.93;99076.47;10523978;28;20048;-70
2022/09/17 22:06:52;;;;;;;1.80;0.73;;;;;;;9.44;90.32;99062.25;10542189;28;20082;-70
2022/09/17 22:11:53;;;;;;;2.38;0.60;;;;;;;9.43;89.25;99057.94;10541535;28;20044;-69
2022/09/17 22:16:56;;;;;;;1.65;0.40;;;;;;;9.43;89.42;99054.44;10541461;28;20040;-69
2022/09/17 22:21:57;;;;;;;1.30;0.38;;;;;;;9.41;89.44;99048.41;10522807;28;20089;-69
2022/09/17 22:26:59;;;;;;;2.05;0.40;;;;;;;9.44;88.03;99050.91;10523072;28;20044;-70
2022/09/17 22:32:01;;;;;;;0.88;0.32;;;;;;;9.44;87.14;99038.66;10540706;28;20040;-70
2022/09/17 22:37:04;;;;;;;2.33;0.85;;;;;;;9.46;87.61;99028.09;10540729;28;20044;-70
2022/09/17 22:42:06;;;;;;;1.50;0.30;;;;;;;9.44;87.50;99043.91;10523767;28;20062;-70
2022/09/17 22:47:08;;;;;;;1.52;0.40;;;;;;;9.35;90.79;99033.81;10540714;28;20048;-69
2022/09/17 22:52:09;;;;;;;1.52;0.30;;;;;;;9.14;95.78;99042.56;10541355;28;20047;-69
2022/09/17 22:57:11;;;;;;;1.40;0.63;;;;;;;9.03;97.45;99046.50;10540315;28;20043;-69
2022/09/17 23:02:12;;;;;;;1.52;0.50;;;;;;;9.05;98.19;99049.91;10540111;28;20036;-69
2022/09/17 23:07:14;;;;;;;1.13;0.47;;;;;;;9.03;98.67;99054.38;10540469;28;20070;-70
2022/09/17 23:12:16;;;;;;;1.33;0.40;;;;;;;8.93;100.00;99046.91;10548344;28;20044;-69
2022/09/17 23:17:17;;;;;;;0.80;0.35;;;;;;;9.01;99.35;99050.09;10548102;28;20063;-69
2022/09/17 23:22:21;;;;;;;3.17;0.90;;;;;;;8.91;100.00;99044.38;10548422;28;20069;-69
2022/09/17 23:27:23;;;;;;;1.73;0.40;;;;;;;8.92;100.00;99042.59;10529488;28;20051;-69
2022/09/17 23:32:25;;;;;;;1.75;0.40;;;;;;;8.94;100.00;99036.41;10547638;28;20036;-70
2022/09/17 23:37:26;;;;;;;1.17;0.40;;;;;;;8.90;100.00;99036.56;10547194;28;20097;-69
2022/09/17 23:42:28;;;;;;;3.38;0.50;;;;;;;8.94;100.00;99025.91;10546731;28;20044;-69
2022/09/17 23:47:30;;;;;;;2.15;0.73;;;;;;;9.01;100.00;99023.88;10546404;28;20097;-69
2022/09/17 23:52:32;;;;;;;2.03;0.57;;;;;;;9.07;100.00;99018.34;10546031;28;20040;-69